首页
METAR-TAF:

METAR-TAF

机场 :

Muskoka, 安大略省, 加拿大

纬度: 44-58N, 经度: 079-18W, 海拔: 280米

当前天气观测

该预报发布于13分钟前的19:19 UTC
风速14节,风向西南,有时为22节阵风
温度 -2°C
湿度 59%
气压 1023 hPa
能見度: 14.5公里
天空无云
小雪

METAR: CYQA 211919Z AUTO 23014G22KT 9SM -SN CLR M02/M09 A3022 RMK SLP254

时间: 14:32 (19:32 UTC)

预报

该预报发布于1小时和59分钟前的17:33 UTC
预报有效从21日的 17点(UTC)到 22日的 01点(UTC)
风速10节,风向西转西南,有时为20节阵风
能見度: 10公里
阴天层高于2000英尺
短暂存在
从 21日的 17点(UTC)到 21日的 20点(UTC)
散云层高于2000英尺
从 21日的 2000点(UTC)
风速12节,风向西南,有时为22节阵风
能見度: 10公里
少量云层高于2500英尺

TAF: CYQA 211733Z 2117/2201 24010G20KT P6SM OVC020 TEMPO 2117/2120 SCT020 FM212000 22012G22KT P6SM FEW025 RMK FCST BASED ON AUTO OBS. NXT FCST BY 212000Z

超过4000个机场的气象观测和天气预报(METAR&TAF报告)。

可查询的气象台以黄色和红色小点在地图上表示。

将鼠标移到小点上方,可查看气象台名称。

然后点击查看天气观测和预报。

如需切换地图:点击带黑十字的绿色按钮放大地图;点击带横线的绿色按钮缩小地图;或者点击绿色箭头查看邻近地区的地图。


METAR-TAF: